createdAt,value
2016-11-15T11:02:58.658Z,89.68
2016-11-15T11:04:12.553Z,90.06
2016-11-15T11:10:25.511Z,90.58
2016-11-15T11:12:09.822Z,90.67
2016-11-15T11:21:45.140Z,89.72
2016-11-15T11:23:02.887Z,89.63
2016-11-15T11:24:16.356Z,90.01
2016-11-15T11:25:30.503Z,90.29
2016-11-15T11:26:44.627Z,90.48
2016-11-15T11:28:58.503Z,90.48
2016-11-15T11:30:40.040Z,90.29
2016-11-15T11:33:51.701Z,90.29
2016-11-15T11:35:41.418Z,89.91
2016-11-15T11:37:24.691Z,90.48
2016-11-15T11:39:08.296Z,90.67
2016-11-15T11:41:37.001Z,89.53
2016-11-15T11:42:58.330Z,89.91
2016-11-15T11:44:27.224Z,89.63
2016-11-15T11:45:40.880Z,89.91
2016-11-15T11:47:10.013Z,89.63
2016-11-15T11:48:24.039Z,89.63
2016-11-15T11:49:37.522Z,88.96
2016-11-15T11:50:51.006Z,88.87
2016-11-15T11:52:04.521Z,89.06
2016-11-15T11:53:18.230Z,89.63
2016-11-15T11:54:34.061Z,88.4
2016-11-15T11:55:49.807Z,88.49
2016-11-15T12:02:39.703Z,89.15
2016-11-15T12:03:54.514Z,88.4
2016-11-15T12:05:08.704Z,88.96
2016-11-15T12:06:22.476Z,89.11
2016-11-15T12:07:36.257Z,88.78
2016-11-15T12:08:52.595Z,89.53
2016-11-15T12:10:06.636Z,89.06
2016-11-15T12:11:23.669Z,89.25
2016-11-15T12:12:37.949Z,89.25
2016-11-15T12:13:51.749Z,89.72
2016-11-15T12:15:20.623Z,88.92
2016-11-15T12:16:34.486Z,89.91
2016-11-15T12:17:48.528Z,89.53
2016-11-15T12:19:02.093Z,90.2
2016-11-15T12:20:30.570Z,90.2
2016-11-15T12:21:44.569Z,89.91
2016-11-15T12:22:58.157Z,90.58
2016-11-15T12:24:11.982Z,90.48
2016-11-15T12:25:25.575Z,90.1
2016-11-15T12:26:40.696Z,90.1
2016-11-15T12:29:24.993Z,90.01
2016-11-15T12:30:54.556Z,89.82
2016-11-15T15:48:59.217Z,92.76
2016-11-15T15:50:28.656Z,90.81
2016-11-15T15:51:44.176Z,89.86
2016-11-15T15:53:19.699Z,90.38
2016-11-15T15:55:03.645Z,90.19
2016-11-15T15:57:16.984Z,90.19
2016-11-15T16:01:59.070Z,89.62
2016-11-15T16:03:43.380Z,89.53
2016-11-15T16:05:27.148Z,90.1
2016-11-15T16:06:41.738Z,90.19
2016-11-15T16:08:26.233Z,90.48
2016-11-15T16:11:25.393Z,90.67
2016-11-15T16:12:54.416Z,90.95
2016-11-15T16:14:08.902Z,91.05
2016-11-15T16:15:39.195Z,91.33
2016-11-15T16:17:52.883Z,90.86
2016-11-15T16:19:23.445Z,90.86
2016-11-15T16:20:38.113Z,90.95
2016-11-15T16:21:54.884Z,90.86
2016-11-15T16:23:24.605Z,90.67
2016-11-15T16:24:39.873Z,90.86
2016-11-15T16:25:53.940Z,91.24
2016-11-15T16:27:09.357Z,91.9
2016-11-15T16:28:23.832Z,91.71
2016-11-15T16:29:40.842Z,91.99
2016-11-15T16:30:56.407Z,91.71
2016-11-15T16:32:10.937Z,92.09
2016-11-15T16:33:25.951Z,92.66
2016-11-15T16:34:41.499Z,92.18
2016-11-15T16:36:10.751Z,92.66
2016-11-15T16:37:25.403Z,92.85
2016-11-15T16:38:40.161Z,92.47
2016-11-15T16:39:54.341Z,92.76
2016-11-15T16:41:08.742Z,92.47
2016-11-15T16:42:23.112Z,92.57
2016-11-15T16:43:37.856Z,92.38
2016-11-15T16:44:52.909Z,92.47
2016-11-15T16:46:07.407Z,92.66
2016-11-15T16:47:21.436Z,92.66
2016-11-15T16:48:35.932Z,92.94
2016-11-15T16:49:50.806Z,92.66
2016-11-15T16:51:05.504Z,92.85
2016-11-15T16:52:20.167Z,93.8
2016-11-15T16:53:34.395Z,93.23
2016-11-15T16:54:48.369Z,92.94
2016-11-15T16:56:02.806Z,93.04
2016-11-15T16:57:18.052Z,93.61
2016-11-15T16:58:32.442Z,93.8
2016-11-15T16:59:46.766Z,93.51
2016-11-15T17:01:01.682Z,93.8
2016-11-15T17:02:15.913Z,93.04
2016-11-15T17:03:30.517Z,93.04
2016-11-15T17:04:44.769Z,93.32
2016-11-15T17:05:59.311Z,93.7
2016-11-15T17:07:14.291Z,93.61
2016-11-15T17:08:28.546Z,93.7
2016-11-15T17:09:43.173Z,93.99
2016-11-15T17:10:57.257Z,93.7
2016-11-15T17:12:11.792Z,93.61
2016-11-15T17:13:25.871Z,93.7
2016-11-15T17:14:42.704Z,94.18
2016-11-15T17:15:57.162Z,93.8
2016-11-15T17:17:11.429Z,93.8
2016-11-15T17:18:25.719Z,93.89
2016-11-15T17:19:40.022Z,93.61
2016-11-15T17:22:24.345Z,93.7
2016-11-15T17:23:53.590Z,93.99
2016-11-15T17:25:07.976Z,94.18
2016-11-15T17:26:23.276Z,93.41
2016-11-15T17:27:52.978Z,93.41
2016-11-15T17:29:07.406Z,93.41
2016-11-15T17:30:22.212Z,93.41
2016-11-15T17:31:37.517Z,93.61
2016-11-15T17:32:52.363Z,93.51
2016-11-15T17:34:21.640Z,93.41
2016-11-15T17:35:36.130Z,93.23
2016-11-15T17:36:50.804Z,93.89
2016-11-15T17:38:06.263Z,93.61
2016-11-15T17:39:20.666Z,93.51
2016-11-15T17:40:35.025Z,93.8
2016-11-15T17:41:49.687Z,93.41
2016-11-15T17:43:03.953Z,93.41
2016-11-15T17:44:19.471Z,92.85
2016-11-15T17:45:33.737Z,93.13
2016-11-15T17:46:48.277Z,93.23
2016-11-15T17:48:02.714Z,93.23
2016-11-15T17:49:17.163Z,93.13
2016-11-15T17:50:32.726Z,92.85
2016-11-15T17:51:46.912Z,92.66
2016-11-15T17:53:01.915Z,92.23
2016-11-15T17:54:16.901Z,92.8
2016-11-15T17:55:31.275Z,92.42
2016-11-15T17:56:45.769Z,92.47
2016-11-15T17:58:00.018Z,92.23
2016-11-15T17:59:14.738Z,92.28
2016-11-15T18:00:29.211Z,92.61
2016-11-15T18:01:43.766Z,92.14
2016-11-15T18:02:59.069Z,91.94
2016-11-15T18:04:13.937Z,91.85
2016-11-15T18:05:28.545Z,92.14
2016-11-15T18:06:59.197Z,92.33
2016-11-15T18:08:14.193Z,91.94
2016-11-15T18:09:29.265Z,92.14
2016-11-15T18:10:43.654Z,92.23
2016-11-15T18:11:58.486Z,92.14
2016-11-15T18:13:13.982Z,92.61
2016-11-15T18:14:30.506Z,92.23
2016-11-15T18:15:44.944Z,92.71
2016-11-15T18:16:59.280Z,92.61
2016-11-15T18:18:14.300Z,92.8
2016-11-15T18:19:28.536Z,92.52
2016-11-15T18:20:43.495Z,92.8
2016-11-15T18:22:12.610Z,92.99
2016-11-15T18:23:27.980Z,92.04
2016-11-15T18:24:42.695Z,92.04
2016-11-15T18:25:58.918Z,91.94
2016-11-15T18:27:13.292Z,92.04
2016-11-15T18:28:28.514Z,92.14
2016-11-15T18:29:43.392Z,91.94
2016-11-15T18:30:58.178Z,91.85
2016-11-15T18:32:14.610Z,91.85
2016-11-15T18:33:32.506Z,92.04
2016-11-15T18:34:48.113Z,91.85
2016-11-15T18:36:03.753Z,92.14
2016-11-15T18:37:18.581Z,92.61
2016-11-15T18:38:34.302Z,92.71
2016-11-15T18:39:48.522Z,92.23
2016-11-15T18:41:03.694Z,92.71
2016-11-15T18:42:31.441Z,92.61
2016-11-15T18:43:45.979Z,92.61
2016-11-15T18:45:00.583Z,92.71
2016-11-15T18:46:16.066Z,92.61
2016-11-15T18:47:30.492Z,92.14
2016-11-15T18:48:45.239Z,91.85
2016-11-15T18:50:15.124Z,92.61
2016-11-15T18:51:29.361Z,92.61
2016-11-15T18:52:44.822Z,92.14
2016-11-15T18:53:59.426Z,92.71
2016-11-15T18:55:14.835Z,92.14
2016-11-15T18:58:02.527Z,91.94
2016-11-15T18:59:19.781Z,92.14
2016-11-15T19:00:37.495Z,91.75
2016-11-15T19:01:55.134Z,92.04
2016-11-15T19:03:15.189Z,91.94
2016-11-15T19:04:31.131Z,92.23
2016-11-15T19:05:46.171Z,91.94
2016-11-15T19:07:01.003Z,91.85
2016-11-15T19:08:16.527Z,91.94
2016-11-15T19:09:32.162Z,92.14
2016-11-15T19:10:47.876Z,92.33
2016-11-15T19:12:02.942Z,92.61
2016-11-15T19:13:17.229Z,92.42
2016-11-15T19:14:31.528Z,92.61
2016-11-15T19:15:46.371Z,92.52
2016-11-15T19:17:00.733Z,92.33
2016-11-15T19:18:15.809Z,92.23
2016-11-15T19:19:30.576Z,92.04
2016-11-15T19:20:45.269Z,92.04
2016-11-15T19:22:00.146Z,92.14
2016-11-15T19:23:15.125Z,92.14
2016-11-15T19:24:30.715Z,92.14
2016-11-15T19:25:45.143Z,91.94
2016-11-15T19:27:00.327Z,92.04
2016-11-15T19:28:14.951Z,92.52
2016-11-15T19:29:29.486Z,91.94
2016-11-15T19:30:44.062Z,91.99
2016-11-15T19:31:58.561Z,91.71
2016-11-15T19:33:15.158Z,91.66
2016-11-15T19:34:43.262Z,91.24
2016-11-15T19:36:18.399Z,91.8
2016-11-15T19:37:34.402Z,91.33
2016-11-15T19:38:49.052Z,91.24
2016-11-15T19:40:23.182Z,91.28
2016-11-15T19:41:38.062Z,91.28
2016-11-15T19:42:52.877Z,91.28
2016-11-15T19:44:07.986Z,91.24
2016-11-15T19:45:22.301Z,91.33
2016-11-15T19:46:37.306Z,91.61
2016-11-15T19:47:51.994Z,90.95
2016-11-15T19:49:07.613Z,90.76
2016-11-15T19:50:22.232Z,91.24
2016-11-15T19:51:37.507Z,91.24
2016-11-15T19:52:55.193Z,91.24
2016-11-15T19:54:11.445Z,91.42
2016-11-15T19:55:26.101Z,91.71
2016-11-15T19:56:42.039Z,91.04
2016-11-15T19:57:58.239Z,91.61
2016-11-15T19:59:12.747Z,91.42
2016-11-15T20:00:27.937Z,92.09
2016-11-15T20:01:43.180Z,92.28
2016-11-15T20:02:57.828Z,91.71
2016-11-15T20:04:12.323Z,91.71
2016-11-15T20:06:57.027Z,91.71
2016-11-15T20:08:11.963Z,91.33
2016-11-15T20:09:26.594Z,91.14
2016-11-15T20:10:41.253Z,92.18
2016-11-15T20:11:56.005Z,91.24
2016-11-15T20:13:11.039Z,91.33
2016-11-15T20:14:25.801Z,91.42
2016-11-15T20:15:40.156Z,91.99
2016-11-15T20:16:55.024Z,91.89
2016-11-15T20:18:10.342Z,92.75
2016-11-15T20:19:25.488Z,91.99
2016-11-15T20:20:40.151Z,92.71
2016-11-15T20:21:55.003Z,92.71
2016-11-15T20:23:09.894Z,92.75
2016-11-15T20:24:24.591Z,92.56
2016-11-15T20:25:39.649Z,92.75
2016-11-15T20:26:53.990Z,92.75
2016-11-15T20:28:08.950Z,91.89
2016-11-15T20:29:23.761Z,91.8
2016-11-15T20:30:38.143Z,91.71
2016-11-15T20:31:52.757Z,92.28
2016-11-15T20:33:07.774Z,91.99
2016-11-15T20:34:22.282Z,91.89
2016-11-15T20:35:36.880Z,91.71
2016-11-15T20:36:51.891Z,91.71
2016-11-15T20:38:07.527Z,92.09
2016-11-15T20:39:22.088Z,92.28
2016-11-15T20:40:37.053Z,92.18
2016-11-15T20:41:51.293Z,92.09
2016-11-15T20:43:05.892Z,92.28
2016-11-15T20:44:20.344Z,92.28
2016-11-15T20:45:44.108Z,92.18
2016-11-15T20:46:58.990Z,91.99
2016-11-15T20:48:13.934Z,92.18
2016-11-15T20:49:29.371Z,91.89
2016-11-15T20:50:43.962Z,91.99
2016-11-15T20:51:58.863Z,91.99
2016-11-15T20:53:13.462Z,91.99
2016-11-15T20:54:27.881Z,91.99
2016-11-15T20:55:42.508Z,92.09
2016-11-15T20:56:56.715Z,92.18
2016-11-15T20:58:11.810Z,91.99
2016-11-15T20:59:26.641Z,91.99
2016-11-15T21:00:41.573Z,91.99
2016-11-15T21:01:56.522Z,91.89
2016-11-15T21:03:11.200Z,91.61
2016-11-15T21:04:26.472Z,92.09
2016-11-15T21:05:40.926Z,91.42
2016-11-15T21:06:55.567Z,91.42
2016-11-15T21:08:10.324Z,91.8
2016-11-15T21:09:25.113Z,91.61
2016-11-15T21:10:43.365Z,91.61
2016-11-15T21:11:58.332Z,91.61
2016-11-15T21:13:13.320Z,91.8
2016-11-15T21:14:27.659Z,92.18
2016-11-15T21:15:42.731Z,92.09
2016-11-15T21:16:57.850Z,91.71
2016-11-15T21:18:27.293Z,91.99
2016-11-15T21:19:42.064Z,91.99
2016-11-15T21:20:57.076Z,91.52
2016-11-15T21:22:11.986Z,91.99
2016-11-15T21:23:26.192Z,91.8
2016-11-15T21:24:40.433Z,91.33
2016-11-15T21:25:55.579Z,91.89
2016-11-15T21:27:24.645Z,91.71
2016-11-15T21:28:39.596Z,92.28
2016-11-15T21:29:54.828Z,91.99
2016-11-15T21:33:12.186Z,92.09
2016-11-15T21:34:26.877Z,91.71
2016-11-15T21:35:41.700Z,92.09
2016-11-15T21:36:56.467Z,91.99
2016-11-15T21:38:11.364Z,91.52
2016-11-15T21:39:26.231Z,91.52
2016-11-15T21:40:41.692Z,91.42
2016-11-15T21:41:56.621Z,91.99
2016-11-15T21:43:12.118Z,91.71
2016-11-15T21:44:26.867Z,91.99
2016-11-15T21:45:42.228Z,91.99
2016-11-15T21:46:57.392Z,92.37
2016-11-15T21:48:26.490Z,92.18
2016-11-15T21:49:41.340Z,92.75
2016-11-15T21:51:11.109Z,92.56
2016-11-15T21:52:27.422Z,92.47
2016-11-15T21:53:42.863Z,92.18
2016-11-15T21:54:57.671Z,92.85
2016-11-15T21:56:12.637Z,92.47
2016-11-15T21:57:27.838Z,92.47
2016-11-15T21:58:42.718Z,92.75
2016-11-15T21:59:58.046Z,92.75
2016-11-15T22:01:13.351Z,91.89
2016-11-15T22:02:28.603Z,91.99
2016-11-15T22:03:43.229Z,92.37
2016-11-15T22:04:59.315Z,91.99
2016-11-15T22:06:29.111Z,91.8
2016-11-15T22:07:43.518Z,92.66
2016-11-15T22:08:58.842Z,91.71
2016-11-15T22:11:43.015Z,92.09
2016-11-15T22:13:12.095Z,92.04
2016-11-15T22:14:41.695Z,91.75
2016-11-15T22:15:56.121Z,91.47
2016-11-15T22:17:11.534Z,92.18
2016-11-15T22:18:26.410Z,92.04
2016-11-15T22:19:41.591Z,92.09
2016-11-15T22:20:56.733Z,92.09
2016-11-15T22:22:11.931Z,92.09
2016-11-15T22:23:26.574Z,91.99
2016-11-15T22:24:41.169Z,91.47
2016-11-15T22:25:56.475Z,91.47
2016-11-15T22:27:11.050Z,91.47
2016-11-15T22:28:25.664Z,91.66
2016-11-15T22:29:40.203Z,91.66
2016-11-15T22:30:57.144Z,92.04
2016-11-15T22:32:11.482Z,92.04
2016-11-15T22:33:26.721Z,92.28
2016-11-15T22:34:41.720Z,92.47
2016-11-15T22:35:56.416Z,91.99
2016-11-15T22:37:10.718Z,92.18
2016-11-15T22:38:25.001Z,92.56
2016-11-15T22:39:39.387Z,92.13
2016-11-15T22:40:54.362Z,92.56
2016-11-15T22:42:09.226Z,92.85
2016-11-15T22:43:24.089Z,93.04
2016-11-15T22:44:38.328Z,93.13
2016-11-15T22:45:52.766Z,93.51
2016-11-15T22:47:07.868Z,93.7
2016-11-15T22:48:22.197Z,93.7
2016-11-15T22:49:36.503Z,93.13
2016-11-15T22:50:50.923Z,93.41
2016-11-15T22:52:05.475Z,92.94
2016-11-15T22:53:21.015Z,93.04
2016-11-15T22:54:35.223Z,93.7
2016-11-15T22:55:50.276Z,93.7
2016-11-15T22:57:05.531Z,93.32
2016-11-15T22:58:20.599Z,93.7
2016-11-15T22:59:35.999Z,93.32
2016-11-15T23:00:51.526Z,93.99
2016-11-15T23:02:06.119Z,93.8
2016-11-15T23:03:36.380Z,94.65
2016-11-15T23:04:51.254Z,94.27
2016-11-15T23:06:06.431Z,94.27
2016-11-15T23:07:21.292Z,94.46
2016-11-15T23:08:35.776Z,94.18
2016-11-15T23:09:51.453Z,94.37
2016-11-15T23:11:06.616Z,94.74
2016-11-15T23:12:21.270Z,94.27
2016-11-15T23:13:35.953Z,94.46
2016-11-15T23:14:51.052Z,94.27
2016-11-15T23:16:06.307Z,94.46
2016-11-15T23:17:22.096Z,93.8
2016-11-15T23:18:37.061Z,93.6
2016-11-15T23:19:51.650Z,93.89
2016-11-15T23:21:06.036Z,94.08
2016-11-15T23:22:21.255Z,93.7
2016-11-15T23:23:50.752Z,94.46
2016-11-15T23:25:05.084Z,94.27
2016-11-15T23:26:19.765Z,95.22
2016-11-15T23:27:34.964Z,94.27
2016-11-15T23:28:50.143Z,94.56
2016-11-15T23:30:05.296Z,94.56
2016-11-15T23:31:34.643Z,94.46
2016-11-15T23:32:49.434Z,94.74
2016-11-15T23:34:03.679Z,94.46
2016-11-15T23:35:19.217Z,94.74
2016-11-15T23:36:34.202Z,94.37
2016-11-15T23:37:49.352Z,94.27
2016-11-15T23:39:04.465Z,94.37
2016-11-15T23:40:19.652Z,93.7
2016-11-15T23:41:35.000Z,93.84
2016-11-15T23:42:49.616Z,93.99
2016-11-15T23:44:04.502Z,93.99
2016-11-15T23:45:19.540Z,93.99
2016-11-15T23:46:34.212Z,93.41
2016-11-15T23:47:49.033Z,93.75
2016-11-15T23:50:22.380Z,93.65
2016-11-15T23:51:36.859Z,93.94
2016-11-15T23:52:51.447Z,93.89
2016-11-15T23:54:06.688Z,94.56
2016-11-15T23:55:22.046Z,94.74
2016-11-15T23:56:36.666Z,93.94
2016-11-15T23:57:51.083Z,94.13
2016-11-15T23:59:05.611Z,93.89
